Pagrindinis puslapis
METAR-TAF:

METAR-TAF

Oro uostai :

Choremabadas, Iranas

platuma: 33-26-11N, ilguma: 048-17-09E, Aukštis: 1155 m

Dabartinis oras

Ataskaita buvo paskelbta 22 minutes, ne 12:00 UTC
Vėjas 10 kt iš Vakarų
Temperatūra 27°C
Drėgmė 20%
Slėgis 1014 hPa
Matomumas 10 km arba daugiau
Mažai debesys ne aukštis 4000 ft, Liūtiniai kamuoliniai debesys.
Mažai debesys ne aukštis 4000 ft, aukštai iškilę kamuoliniai debesys.

METAR: OICK 201200Z 27010KT 9999 FEW040CB FEW040TCU 27/02 Q1014 A2994

Laikas: 16:52 (12:22 UTC)


TAF: trūkstamas

Orai ataskaitas ir orų prognozės (METAR, TAF).

turimą stotys yra geltonos ir raudonos taškus žemėlapyje.

Perkelti pele per norėdami pamatyti stoties vardą.

Tada spustelėkite, norėdami matyti oro stebėjimo ir prognozės.

Norėdami pakeisti žemėlapį: spustelėkite ant žalios mygtukų su juodo kryžiaus žemyn,; žalią mygtuką su brūkšneliu, jei norite nutolinti; arba žalių rodyklių gretimoms žemėlapius.


METAR-TAF: